Winfred, SD

6:29 PM CDT on September 30, 2014 (GMT -0500)
Madison Municipal | Change Station
CLOSE
Current Station
Airport
Location: Madison,
Elevation: 1716 ft
Nearby Weather Stations

Elev 1716 ft 44.01 °N, 97.08 °W | Updated 14 minutes ago

Overcast
Overcast
64 °F
Feels Like 64 °F
N
17
Wind Variable Wind from SSE
Gusts 38 mph

Today
High -- | Low -- °F
--% Chance of Precip.
Yesterday
High -- | Low -- °F
Precip. -- in
7:25 AM 7:11 PM
Waxing Crescent, 41% visible
Pressure 29.68 in
Visibility 10.0 miles
Clouds Overcast 1600 ft
Dew Point 64 °F
Humidity 100%
Rainfall 0.03 in
Snow Depth 0 in , 1 in
UV 0 out of 12
Pollen 2.40 out of 12
Air Quality Not available.
Flu Activity Not available.
METAR KMDS 302315Z AUTO 16015G33KT 10SM OVC016 18/18 A2968 RMK AO2

More Conditions Fewer Conditions

Pressure 29.68 in
Visibility 10.0 miles
Clouds Overcast 1600 ft
Dew Point 64 °F
Humidity 100%
Rainfall 0.03 in
Snow Depth 0 in , 1 in
UV 0 out of 12
Pollen 2.40 out of 12
Air Quality Not available.
Flu Activity Not available.
METAR KMDS 302315Z AUTO 16015G33KT 10SM OVC016 18/18 A2968 RMK AO2

More Conditions Fewer Conditions

10-Day Weather Forecast

Almanac

Astronomy

Sep. 30, 2014 Rise Set
Actual Time 7:25 AM CDT 7:11 PM CDT
Civil Twilight 6:57 AM CDT 7:40 PM CDT
Nautical Twilight 6:23 AM CDT 8:13 PM CDT
Astronomical Twilight 5:49 AM CDT 8:47 PM CDT
Moon 1:44 PM CDT 11:34 PM CDT
Length of Visible Light 12h 43m
Length of Day
11h 46m
Tomorrow will be 2m 59s shorter.
Waxing Crescent, 41% of the Moon is Illuminated
Today
Waxing Crescent
Oct 1
First Quarter
Oct 8
Full
Oct 15
Last Quarter
Oct 23
New

Today's Extremes

State Highs State Lows

Community

WunderPhotos

Upload Photos

1,757,768 photos uploaded!

Nearby

Snow Depth

Station Depth Elevation
North Rapid Creek 0 in 6130 ft
Blind Park 1 in 6890 ft

Earthquake Activity

City Distance Mag. Time & Date
No recent earthquake activity has been reported nearby.
Minimum magnitude displayed is 2.5.

Coastal Water Temperatures

Place Temperature
No Stations Reporting

Nearby Weather Stations